Time;durP1;ratioP1;P1;durP2;ratioP2;P2;SDS_P1;SDS_P2;PMS_P1;PMS_P2;Temp;Humidity;BMP_temperature;BMP_pressure;BME280_temperature;BME280_humidity;BME280_pressure;Samples;Min_cycle;Max_cycle;Signal;HPM_P1;HPM_P2
2021/11/06 00:03:39;;;;;;;26.00;10.37;;;8.30;99.90;;;;;;6757939;88;20203;-78
2021/11/06 00:13:40;;;;;;;19.50;8.98;;;8.40;99.90;;;;;;6760834;88;20562;-78
2021/11/06 00:23:40;;;;;;;22.45;9.27;;;8.30;99.90;;;;;;6775844;87;20665;-78
2021/11/06 00:33:41;;;;;;;21.27;8.80;;;8.20;99.90;;;;;;6778703;87;20219;-78
2021/11/06 00:43:41;;;;;;;22.13;9.63;;;8.10;99.90;;;;;;6777990;87;20214;-78
2021/11/06 01:04:44;;;;;;;20.73;9.15;;;7.90;99.90;;;;;;6784666;87;20200;-80
2021/11/06 01:14:44;;;;;;;18.93;9.40;;;7.70;99.90;;;;;;6784462;87;20257;-80
2021/11/06 01:24:45;;;;;;;19.75;9.00;;;7.50;99.90;;;;;;6782026;87;20485;-81
2021/11/06 01:34:45;;;;;;;19.45;9.60;;;7.40;99.90;;;;;;6783196;87;20273;-80
2021/11/06 01:44:46;;;;;;;21.95;10.10;;;7.60;99.90;;;;;;6786736;87;20155;-79
2021/11/06 01:54:47;;;;;;;19.50;9.43;;;7.50;99.90;;;;;;6786602;87;20238;-80
2021/11/06 02:04:48;;;;;;;18.45;9.27;;;7.20;99.90;;;;;;6786343;87;20288;-80
2021/11/06 02:14:49;;;;;;;20.45;9.45;;;7.00;99.90;;;;;;6785974;87;20173;-80
2021/11/06 02:24:50;;;;;;;20.80;9.40;;;6.70;99.90;;;;;;6785877;87;20179;-80
2021/11/06 02:34:51;;;;;;;20.48;9.40;;;6.70;99.90;;;;;;6782301;87;20167;-81
2021/11/06 02:44:52;;;;;;;23.10;10.10;;;6.70;99.90;;;;;;6786086;87;20191;-80
2021/11/06 02:54:52;;;;;;;19.12;9.10;;;6.50;99.90;;;;;;6782662;87;21385;-81
2021/11/06 03:04:53;;;;;;;19.87;9.63;;;6.30;99.90;;;;;;6780746;87;20216;-80
2021/11/06 03:14:54;;;;;;;18.90;9.23;;;6.30;99.90;;;;;;6785844;87;20188;-80
2021/11/06 03:24:55;;;;;;;20.12;9.60;;;6.30;99.90;;;;;;6785787;87;20192;-80
2021/11/06 03:34:55;;;;;;;21.75;9.55;;;6.10;99.90;;;;;;6781103;87;20194;-80
2021/11/06 03:44:56;;;;;;;22.10;9.50;;;6.00;99.90;;;;;;6784734;87;20191;-79
2021/11/06 03:54:56;;;;;;;17.25;8.50;;;5.80;99.90;;;;;;6785351;87;20896;-81
2021/11/06 04:04:57;;;;;;;19.55;9.63;;;5.70;99.90;;;;;;6784946;87;20244;-81
2021/11/06 04:14:58;;;;;;;23.10;8.88;;;5.80;99.90;;;;;;6767903;88;20182;-80
2021/11/06 04:24:58;;;;;;;21.58;9.27;;;5.70;99.90;;;;;;6764288;88;20163;-83
2021/11/06 04:34:59;;;;;;;17.92;8.38;;;5.60;99.90;;;;;;6768056;88;20174;-81
2021/11/06 04:44:59;;;;;;;17.95;8.80;;;5.50;99.90;;;;;;6748170;88;20205;-81
2021/11/06 04:55:00;;;;;;;18.93;8.47;;;5.50;99.90;;;;;;6744806;88;20186;-80
2021/11/06 05:05:01;;;;;;;16.40;7.85;;;5.50;99.90;;;;;;6747241;88;20516;-80
2021/11/06 05:15:05;;;;;;;16.62;7.68;;;5.50;99.90;;;;;;6765816;88;20188;-80
2021/11/06 05:25:07;;;;;;;15.30;7.70;;;5.40;99.90;;;;;;6769776;88;20164;-80
2021/11/06 05:35:10;;;;;;;14.02;7.03;;;5.40;99.90;;;;;;6769696;88;20791;-80
2021/11/06 05:45:11;;;;;;;16.10;8.35;;;5.30;99.90;;;;;;6754885;88;20196;-80
2021/11/06 05:55:14;;;;;;;15.35;7.75;;;5.20;99.90;;;;;;6769945;88;20169;-80
2021/11/06 06:05:15;;;;;;;19.02;8.38;;;5.20;99.90;;;;;;6765936;88;20201;-80
2021/11/06 06:15:15;;;;;;;17.52;8.43;;;5.20;99.90;;;;;;6769252;88;20168;-80
2021/11/06 06:25:16;;;;;;;17.30;8.70;;;5.20;99.90;;;;;;6765299;88;20506;-81
2021/11/06 06:35:17;;;;;;;19.27;8.23;;;5.30;99.90;;;;;;6769052;88;20278;-80
2021/11/06 06:45:18;;;;;;;21.02;9.23;;;5.20;99.90;;;;;;6749029;88;20315;-79
2021/11/06 06:56:00;;;;;;;22.13;10.68;;;5.20;99.90;;;;;;6743430;77;20197;-78
2021/11/06 07:06:00;;;;;;;23.95;10.50;;;5.20;99.90;;;;;;6741078;88;20193;-78
2021/11/06 07:16:02;;;;;;;25.08;10.63;;;5.20;99.90;;;;;;6730138;88;20702;-77
2021/11/06 07:26:03;;;;;;;25.75;11.55;;;5.40;99.90;;;;;;6723451;88;20197;-78
2021/11/06 07:36:04;;;;;;;23.08;9.88;;;5.50;99.90;;;;;;6723305;88;20257;-77
2021/11/06 07:46:05;;;;;;;18.37;9.33;;;5.70;99.90;;;;;;6724362;88;20235;-78
2021/11/06 07:56:06;;;;;;;19.75;8.80;;;6.10;99.90;;;;;;6720837;88;20514;-77
2021/11/06 08:06:07;;;;;;;21.12;9.50;;;6.10;99.90;;;;;;6721336;88;20661;-77
2021/11/06 08:16:07;;;;;;;17.95;9.55;;;6.30;99.90;;;;;;6726077;88;20201;-77
2021/11/06 08:26:08;;;;;;;17.60;8.48;;;6.80;99.90;;;;;;6725400;88;20281;-78
2021/11/06 08:36:08;;;;;;;22.37;7.95;;;7.30;99.90;;;;;;6725044;88;20282;-77
2021/11/06 08:46:09;;;;;;;14.02;7.70;;;7.60;99.90;;;;;;6724592;88;20274;-77
2021/11/06 08:56:09;;;;;;;11.07;5.93;;;7.90;99.90;;;;;;6732249;88;20203;-77
2021/11/06 09:06:10;;;;;;;13.80;6.18;;;8.50;99.90;;;;;;6724924;88;20205;-78
2021/11/06 09:16:11;;;;;;;10.55;5.90;;;8.90;99.90;;;;;;6722982;88;20790;-78
2021/11/06 09:26:11;;;;;;;7.35;4.37;;;9.60;99.90;;;;;;6719989;88;20741;-78
2021/11/06 09:36:12;;;;;;;5.70;3.85;;;10.70;99.90;;;;;;6719717;88;20708;-77
2021/11/06 09:46:14;;;;;;;6.62;3.53;;;11.30;99.90;;;;;;6717043;88;20262;-78
2021/11/06 09:56:20;;;;;;;5.18;3.25;;;11.50;99.90;;;;;;6720858;88;20271;-77
2021/11/06 10:06:23;;;;;;;7.70;2.97;;;11.90;99.90;;;;;;6719599;88;20656;-78
2021/11/06 10:16:38;;;;;;;4.78;2.10;;;12.80;99.90;;;;;;6715925;88;20200;-78
2021/11/06 10:26:39;;;;;;;4.05;2.05;;;12.60;99.90;;;;;;6719918;88;20184;-78
2021/11/06 10:36:40;;;;;;;4.15;1.90;;;13.10;99.90;;;;;;6719805;88;20185;-78
2021/11/06 10:46:50;;;;;;;4.32;2.20;;;13.50;99.90;;;;;;6718988;88;20656;-78
2021/11/06 10:56:55;;;;;;;3.22;1.80;;;13.50;99.90;;;;;;6720226;88;20292;-78
2021/11/06 11:06:59;;;;;;;13.60;5.50;;;14.70;99.90;;;;;;6724536;88;20255;-77
2021/11/06 11:17:03;;;;;;;2.85;1.60;;;15.00;99.90;;;;;;6717535;88;20266;-77
2021/11/06 11:27:04;;;;;;;4.82;1.85;;;15.00;99.90;;;;;;6719817;88;20355;-77
2021/11/06 11:37:05;;;;;;;3.78;1.45;;;14.70;99.90;;;;;;6716350;88;20455;-77
2021/11/06 11:47:16;;;;;;;2.55;1.10;;;14.70;99.90;;;;;;6717663;88;20617;-78
2021/11/06 11:57:17;;;;;;;1.70;1.00;;;15.90;99.90;;;;;;6734993;88;20214;-78
2021/11/06 12:07:23;;;;;;;3.12;1.00;;;15.70;99.90;;;;;;6710627;88;20978;-78
2021/11/06 12:17:31;;;;;;;1.77;0.95;;;15.10;99.90;;;;;;6713119;88;20213;-78
2021/11/06 12:27:40;;;;;;;2.28;1.00;;;15.10;99.90;;;;;;6712573;88;20177;-78
2021/11/06 12:37:42;;;;;;;3.47;0.90;;;16.10;99.90;;;;;;6706011;88;20654;-77
2021/11/06 12:48:17;;;;;;;1.62;0.93;;;16.90;98.70;;;;;;6711558;88;20210;-78
2021/11/06 12:58:19;;;;;;;1.90;0.80;;;15.00;99.90;;;;;;6695706;88;20216;-77
2021/11/06 13:08:20;;;;;;;1.62;0.60;;;17.30;99.50;;;;;;6720658;88;20674;-77
2021/11/06 13:18:22;;;;;;;1.40;0.65;;;16.60;99.20;;;;;;6721367;88;21044;-77
2021/11/06 13:28:23;;;;;;;1.77;0.55;;;17.40;97.60;;;;;;6723034;88;20225;-78
2021/11/06 13:38:33;;;;;;;1.30;0.70;;;18.20;97.60;;;;;;6723462;88;20220;-77
2021/11/06 13:48:38;;;;;;;1.50;0.60;;;16.40;97.70;;;;;;6723246;88;20221;-77
2021/11/06 13:58:38;;;;;;;1.27;0.52;;;15.90;99.00;;;;;;6720434;88;20633;-77
2021/11/06 14:08:39;;;;;;;1.20;0.50;;;16.90;98.00;;;;;;6705694;88;20326;-77
2021/11/06 14:18:43;;;;;;;1.60;0.60;;;16.40;99.10;;;;;;6705532;88;20202;-77
2021/11/06 14:28:57;;;;;;;2.40;0.90;;;15.50;99.90;;;;;;6703635;88;20283;-77
2021/11/06 14:39:12;;;;;;;1.73;0.70;;;14.00;99.90;;;;;;6701764;88;20186;-78
2021/11/06 14:49:14;;;;;;;2.42;0.80;;;13.40;99.90;;;;;;6703773;88;20177;-77
2021/11/06 14:59:15;;;;;;;1.58;0.90;;;12.80;99.90;;;;;;6709448;88;20359;-76
2021/11/06 15:09:15;;;;;;;4.50;0.97;;;12.40;99.90;;;;;;6705141;88;20322;-78
2021/11/06 15:19:17;;;;;;;1.55;0.70;;;12.20;99.90;;;;;;6715841;88;20527;-78
2021/11/06 15:29:20;;;;;;;2.25;0.70;;;12.00;99.90;;;;;;6711548;88;20201;-78
2021/11/06 15:39:21;;;;;;;2.53;0.80;;;11.70;99.90;;;;;;6709375;88;20315;-78
2021/11/06 15:49:22;;;;;;;1.37;0.70;;;11.60;99.90;;;;;;6710476;88;20205;-78
2021/11/06 15:59:22;;;;;;;1.63;0.60;;;11.60;99.90;;;;;;6721808;88;20201;-78
2021/11/06 16:09:23;;;;;;;2.28;0.80;;;11.50;99.90;;;;;;6728480;88;20942;-77
2021/11/06 16:19:28;;;;;;;2.22;0.90;;;11.40;99.90;;;;;;6725099;88;20180;-78
2021/11/06 16:29:28;;;;;;;3.45;0.90;;;11.30;99.90;;;;;;6732171;88;20199;-78
2021/11/06 16:39:30;;;;;;;1.53;0.93;;;11.20;99.90;;;;;;6729143;88;20257;-77
2021/11/06 16:49:30;;;;;;;2.47;0.77;;;11.10;99.90;;;;;;6725157;88;20206;-78
2021/11/06 16:59:31;;;;;;;2.72;0.80;;;11.10;99.90;;;;;;6724111;88;20282;-78
2021/11/06 17:09:42;;;;;;;2.15;0.80;;;11.10;99.90;;;;;;6730998;88;20194;-78
2021/11/06 17:19:43;;;;;;;1.95;0.75;;;11.10;99.90;;;;;;6733175;88;20256;-78
2021/11/06 17:29:44;;;;;;;2.72;1.00;;;10.90;99.90;;;;;;6732962;88;20190;-78
2021/11/06 17:39:44;;;;;;;2.05;1.20;;;10.70;99.90;;;;;;6732316;88;20287;-77
2021/11/06 17:49:52;;;;;;;3.08;1.60;;;10.60;99.90;;;;;;6735378;88;20308;-78
2021/11/06 17:59:52;;;;;;;2.75;1.50;;;10.50;99.90;;;;;;6744589;88;20175;-78
2021/11/06 18:09:53;;;;;;;4.45;1.87;;;10.50;99.90;;;;;;6734289;88;20260;-78
2021/11/06 18:19:54;;;;;;;3.60;1.83;;;10.40;99.90;;;;;;6735207;88;20205;-79
2021/11/06 18:29:54;;;;;;;4.60;1.90;;;10.30;99.90;;;;;;6735333;88;20228;-78
2021/11/06 18:39:55;;;;;;;4.10;1.90;;;10.20;99.90;;;;;;6739519;88;20193;-78
2021/11/06 18:49:55;;;;;;;6.07;1.75;;;10.20;99.90;;;;;;6735786;88;20221;-78
2021/11/06 18:59:57;;;;;;;5.85;1.80;;;10.20;99.90;;;;;;6730170;88;20284;-79
2021/11/06 19:09:57;;;;;;;6.35;1.77;;;10.20;99.90;;;;;;6728774;88;20677;-79
2021/11/06 19:19:58;;;;;;;5.40;1.87;;;10.20;99.90;;;;;;6729328;88;20197;-79
2021/11/06 19:29:59;;;;;;;5.57;2.20;;;10.00;99.90;;;;;;6729384;88;20185;-78
2021/11/06 19:39:59;;;;;;;3.57;1.83;;;9.90;99.90;;;;;;6728568;88;20200;-78
2021/11/06 19:50:01;;;;;;;3.50;1.80;;;9.90;99.90;;;;;;6729709;88;20510;-78
2021/11/06 20:00:05;;;;;;;5.30;2.08;;;9.90;99.90;;;;;;6729306;88;20197;-78
2021/11/06 20:10:06;;;;;;;4.55;1.87;;;9.90;99.90;;;;;;6726073;88;20213;-78
2021/11/06 20:20:08;;;;;;;3.05;1.52;;;10.00;99.90;;;;;;6729035;88;20334;-78
2021/11/06 20:30:10;;;;;;;3.53;1.70;;;9.90;99.90;;;;;;6732456;88;20193;-78
2021/11/06 20:40:12;;;;;;;5.93;2.20;;;9.90;99.90;;;;;;6728400;88;20208;-77
2021/11/06 20:50:14;;;;;;;3.97;1.60;;;9.80;99.90;;;;;;6725970;88;20181;-78
2021/11/06 21:00:17;;;;;;;5.28;1.90;;;9.70;99.90;;;;;;6734062;88;20279;-80
2021/11/06 21:10:28;;;;;;;5.68;2.15;;;9.70;99.90;;;;;;6729523;88;20181;-80
2021/11/06 21:20:29;;;;;;;3.53;2.12;;;9.70;99.90;;;;;;6731295;88;20197;-80
2021/11/06 21:30:29;;;;;;;4.45;1.83;;;9.60;99.90;;;;;;6730138;88;20193;-79
2021/11/06 21:40:31;;;;;;;4.53;2.28;;;9.60;99.90;;;;;;6731599;88;20185;-79
2021/11/06 21:50:32;;;;;;;3.53;1.87;;;9.60;99.90;;;;;;6733224;88;20196;-80
2021/11/06 22:00:35;;;;;;;3.90;2.20;;;9.60;99.90;;;;;;6732873;88;21037;-80
2021/11/06 22:10:36;;;;;;;6.40;2.80;;;9.50;99.90;;;;;;6729231;88;20211;-78
2021/11/06 22:20:38;;;;;;;6.05;2.70;;;9.50;99.90;;;;;;6726507;88;20279;-79
2021/11/06 22:30:39;;;;;;;5.00;2.60;;;9.50;99.90;;;;;;6726759;88;20190;-76
2021/11/06 22:40:40;;;;;;;7.20;2.90;;;9.40;99.90;;;;;;6726716;88;20276;-79
2021/11/06 22:50:43;;;;;;;4.90;2.83;;;9.30;99.90;;;;;;6732289;88;20218;-79
2021/11/06 23:00:45;;;;;;;5.30;2.85;;;9.30;99.90;;;;;;6728786;88;20198;-77
2021/11/06 23:10:46;;;;;;;5.85;3.10;;;9.30;99.90;;;;;;6727811;88;20212;-79
2021/11/06 23:20:49;;;;;;;5.12;2.60;;;9.20;99.90;;;;;;6732348;88;20628;-79
2021/11/06 23:30:51;;;;;;;8.63;3.12;;;9.20;99.90;;;;;;6727557;88;20201;-76
2021/11/06 23:40:51;;;;;;;4.90;2.50;;;9.10;99.90;;;;;;6727522;88;20332;-78
2021/11/06 23:51:02;;;;;;;4.87;2.83;;;9.20;99.90;;;;;;6728555;88;20193;-79
